createdAt,value
2023-02-13T00:00:48.112Z,100918.94
2023-02-13T00:03:15.227Z,100914.63
2023-02-13T00:05:42.073Z,100912.09
2023-02-13T00:08:08.924Z,100908.63
2023-02-13T00:10:35.959Z,100911.13
2023-02-13T00:13:02.808Z,100909.38
2023-02-13T00:15:29.765Z,100904.09
2023-02-13T00:17:56.681Z,100914.44
2023-02-13T00:20:23.887Z,100919.47
2023-02-13T00:22:50.783Z,100908.34
2023-02-13T00:25:17.815Z,100907.53
2023-02-13T00:27:44.692Z,100910.06
2023-02-13T00:30:12.212Z,100916.00
2023-02-13T00:32:39.275Z,100910.88
2023-02-13T00:35:06.507Z,100904.09
2023-02-13T00:37:34.074Z,100922.03
2023-02-13T00:40:00.888Z,100909.16
2023-02-13T00:42:27.955Z,100905.66
2023-02-13T00:44:55.143Z,100916.00
2023-02-13T00:47:22.080Z,100918.56
2023-02-13T00:49:49.015Z,100921.00
2023-02-13T00:52:15.906Z,100893.56
2023-02-13T00:54:42.818Z,100906.47
2023-02-13T00:57:09.671Z,100920.19
2023-02-13T00:59:36.599Z,100890.16
2023-02-13T01:02:03.890Z,100894.44
2023-02-13T01:04:30.738Z,100872.00
2023-02-13T01:06:57.977Z,100902.13
2023-02-13T01:09:25.550Z,100904.69
2023-02-13T01:11:52.560Z,100906.50
2023-02-13T01:14:19.533Z,100901.31
2023-02-13T01:16:46.453Z,100902.13
2023-02-13T01:19:13.366Z,100905.56
2023-02-13T01:21:40.302Z,100908.09
2023-02-13T01:24:07.427Z,100897.72
2023-02-13T01:26:34.314Z,100903.75
2023-02-13T01:29:01.773Z,100903.72
2023-02-13T01:31:28.722Z,100895.06
2023-02-13T01:33:59.105Z,100879.66
2023-02-13T01:36:26.538Z,100904.50
2023-02-13T01:38:56.705Z,100905.41
2023-02-13T01:41:25.075Z,100903.59
2023-02-13T01:43:59.722Z,100910.41
2023-02-13T01:46:43.334Z,100909.59
2023-02-13T01:49:21.411Z,100900.19
2023-02-13T01:51:53.400Z,100892.50
2023-02-13T01:54:31.236Z,100896.81
2023-02-13T01:57:25.046Z,100900.91
2023-02-13T02:00:07.516Z,100880.28
2023-02-13T02:02:40.294Z,100893.97
2023-02-13T02:05:08.933Z,100896.56
2023-02-13T02:07:37.256Z,100900.81
2023-02-13T02:10:12.173Z,100897.38
2023-02-13T02:12:53.940Z,100906.78
2023-02-13T02:15:21.841Z,100896.41
2023-02-13T02:17:48.655Z,100891.34
2023-02-13T02:20:53.715Z,100892.13
2023-02-13T02:23:57.579Z,100866.25
2023-02-13T02:26:55.820Z,100899.81
2023-02-13T02:30:21.592Z,100890.34
2023-02-13T02:33:14.462Z,100889.50
2023-02-13T02:36:13.582Z,100893.66
2023-02-13T02:39:27.460Z,100894.53
2023-02-13T02:42:12.742Z,100888.53
2023-02-13T02:44:56.440Z,100895.38
2023-02-13T02:48:13.025Z,100897.09
2023-02-13T02:51:03.433Z,100894.44
2023-02-13T02:53:44.151Z,100897.81
2023-02-13T02:56:26.526Z,100885.66
2023-02-13T02:59:22.525Z,100895.19
2023-02-13T03:02:09.344Z,100902.75
2023-02-13T03:05:03.307Z,100901.06
2023-02-13T03:07:30.276Z,100901.09
2023-02-13T03:10:20.558Z,100889.94
2023-02-13T03:13:23.771Z,100899.28
2023-02-13T03:16:12.755Z,100897.59
2023-02-13T03:19:02.411Z,100903.50
2023-02-13T03:22:18.670Z,100912.00
2023-02-13T03:25:08.461Z,100907.69
2023-02-13T03:28:12.156Z,100909.25
2023-02-13T03:31:36.953Z,100915.34
2023-02-13T03:34:16.399Z,100926.47
2023-02-13T03:37:09.297Z,100919.53
2023-02-13T03:40:08.531Z,100929.75
2023-02-13T03:43:03.551Z,100930.63
2023-02-13T03:45:54.112Z,100928.03
2023-02-13T03:48:49.631Z,100934.00
2023-02-13T03:51:36.433Z,100938.25
2023-02-13T03:54:47.601Z,100933.03
2023-02-13T03:57:38.662Z,100942.47
2023-02-13T04:00:10.971Z,100937.38
2023-02-13T04:02:48.237Z,100945.06
2023-02-13T04:05:24.841Z,100940.88
2023-02-13T04:07:51.702Z,100949.31
2023-02-13T04:10:19.437Z,100942.47
2023-02-13T04:13:03.912Z,100950.16
2023-02-13T04:15:40.740Z,100956.22
2023-02-13T04:18:11.575Z,100957.13
2023-02-13T04:20:39.581Z,100954.44
2023-02-13T04:23:12.199Z,100959.50
2023-02-13T04:25:43.613Z,100958.63
2023-02-13T04:28:10.503Z,100963.81
2023-02-13T04:30:37.626Z,100951.75
2023-02-13T04:33:04.709Z,100913.94
2023-02-13T04:35:32.008Z,100964.69
2023-02-13T04:37:59.043Z,100961.16
2023-02-13T04:40:25.869Z,100948.34
2023-02-13T04:42:52.880Z,100938.84
2023-02-13T04:45:19.798Z,100953.31
2023-02-13T04:47:55.035Z,100952.56
2023-02-13T04:50:22.949Z,100932.66
2023-02-13T04:52:57.250Z,100952.56
2023-02-13T04:55:26.141Z,100937.88
2023-02-13T04:57:56.511Z,100940.38
2023-02-13T05:00:26.264Z,100957.63
2023-02-13T05:02:53.497Z,100963.44
2023-02-13T05:05:21.245Z,100965.03
2023-02-13T05:07:48.126Z,100966.78
2023-02-13T05:10:15.054Z,100969.41
2023-02-13T05:12:41.845Z,100972.84
2023-02-13T05:15:09.718Z,100965.97
2023-02-13T05:17:36.610Z,100955.56
2023-02-13T05:20:03.540Z,100976.19
2023-02-13T05:22:48.887Z,100978.81
2023-02-13T05:25:15.954Z,100973.72
2023-02-13T05:27:42.841Z,100975.44
2023-02-13T05:30:10.534Z,100981.41
2023-02-13T05:32:37.634Z,100972.03
2023-02-13T05:35:05.843Z,100961.56
2023-02-13T05:37:32.705Z,100958.91
2023-02-13T05:39:59.565Z,100976.94
2023-02-13T05:42:26.473Z,100974.34
2023-02-13T05:44:53.336Z,100947.63
2023-02-13T05:47:20.179Z,100964.84
2023-02-13T05:49:47.114Z,100978.72
2023-02-13T05:52:14.049Z,100981.28
2023-02-13T05:54:41.026Z,100944.16
2023-02-13T05:57:07.843Z,100971.78
2023-02-13T05:59:34.759Z,100973.53
2023-02-13T06:02:01.560Z,100930.50
2023-02-13T06:04:28.370Z,100932.13
2023-02-13T06:06:55.182Z,100968.34
2023-02-13T06:09:22.123Z,100957.03
2023-02-13T06:11:49.242Z,100966.56
2023-02-13T06:14:16.502Z,100968.19
2023-02-13T06:16:43.442Z,100969.03
2023-02-13T06:19:10.357Z,100975.00
2023-02-13T06:21:38.498Z,100970.72
2023-02-13T06:24:07.927Z,100971.47
2023-02-13T06:26:35.491Z,100973.22
2023-02-13T06:29:02.387Z,100982.59
2023-02-13T06:31:29.332Z,100980.84
2023-02-13T06:33:56.210Z,100989.41
2023-02-13T06:36:23.025Z,100960.19
2023-02-13T06:38:49.937Z,100961.75
2023-02-13T06:41:16.902Z,100969.47
2023-02-13T06:43:43.807Z,100995.25
2023-02-13T06:46:10.727Z,100991.84
2023-02-13T06:48:37.642Z,100978.09
2023-02-13T06:51:05.113Z,100985.09
2023-02-13T06:53:31.965Z,100989.41
2023-02-13T06:55:58.833Z,101000.41
2023-02-13T06:58:26.735Z,100974.63
2023-02-13T07:00:54.001Z,100999.53
2023-02-13T07:03:20.953Z,101003.09
2023-02-13T07:05:47.999Z,100995.44
2023-02-13T07:08:14.839Z,100996.34
2023-02-13T07:10:42.038Z,100998.06
2023-02-13T07:13:09.661Z,101004.00
2023-02-13T07:15:37.449Z,100990.19
2023-02-13T07:18:05.701Z,101002.31
2023-02-13T07:20:32.810Z,100983.44
2023-02-13T07:23:01.391Z,101010.09
2023-02-13T07:25:29.226Z,101010.91
2023-02-13T07:28:01.526Z,101012.75
2023-02-13T07:30:29.169Z,101022.16
2023-02-13T07:33:00.645Z,100999.00
2023-02-13T07:35:27.763Z,101021.41
2023-02-13T07:37:55.902Z,101014.59
2023-02-13T07:40:22.891Z,101005.94
2023-02-13T07:42:49.843Z,101018.16
2023-02-13T07:45:16.695Z,101013.91
2023-02-13T07:47:43.633Z,101020.69
2023-02-13T07:50:11.112Z,101023.34
2023-02-13T07:52:38.141Z,101014.81
2023-02-13T07:55:06.370Z,101012.28
2023-02-13T07:57:33.897Z,101022.56
2023-02-13T08:00:00.800Z,101018.38
2023-02-13T08:02:27.763Z,101017.34
2023-02-13T08:04:54.615Z,101023.56
2023-02-13T08:07:21.460Z,101026.13
2023-02-13T08:10:06.646Z,101024.28
2023-02-13T08:12:36.067Z,101023.59
2023-02-13T08:15:03.997Z,101009.88
2023-02-13T08:17:30.927Z,101020.34
2023-02-13T08:19:58.062Z,101011.00
2023-02-13T08:22:25.039Z,101023.88
2023-02-13T08:24:51.910Z,101019.69
2023-02-13T08:27:18.915Z,101001.63
2023-02-13T08:29:45.810Z,101018.06
2023-02-13T08:32:13.403Z,101019.81
2023-02-13T08:34:40.302Z,101020.72
2023-02-13T08:37:07.079Z,101020.78
2023-02-13T08:39:33.940Z,101010.63
2023-02-13T08:42:00.767Z,100995.19
2023-02-13T08:44:27.582Z,101011.63
2023-02-13T08:46:54.462Z,101008.25
2023-02-13T08:49:21.304Z,100985.13
2023-02-13T08:51:48.082Z,101002.34
2023-02-13T08:54:15.055Z,101010.09
2023-02-13T08:56:43.079Z,101006.75
2023-02-13T08:59:09.894Z,100994.88
2023-02-13T09:01:36.889Z,100996.63
2023-02-13T09:04:03.820Z,100999.22
2023-02-13T09:06:30.654Z,101003.53
2023-02-13T09:08:57.467Z,100993.25
2023-02-13T09:11:24.353Z,101001.06
2023-02-13T09:13:53.777Z,100987.34
2023-02-13T09:16:21.714Z,101001.13
2023-02-13T09:18:50.360Z,100986.66
2023-02-13T09:21:19.912Z,100990.97
2023-02-13T09:23:46.760Z,100988.31
2023-02-13T09:26:15.860Z,100987.56
2023-02-13T09:28:43.493Z,100975.63
2023-02-13T09:31:19.689Z,100987.69
2023-02-13T09:33:48.519Z,100998.84
2023-02-13T09:36:21.479Z,100989.47
2023-02-13T09:38:52.672Z,100997.97
2023-02-13T09:41:35.514Z,100995.50
2023-02-13T09:44:35.699Z,100991.28
2023-02-13T09:47:33.312Z,100996.44
2023-02-13T09:50:15.863Z,100993.03
2023-02-13T09:52:46.128Z,100999.03
2023-02-13T09:55:27.572Z,101005.97
2023-02-13T09:58:37.029Z,100994.03
2023-02-13T10:01:06.646Z,100988.09
2023-02-13T10:03:46.764Z,100995.94
2023-02-13T10:06:49.888Z,100992.41
2023-02-13T10:10:02.436Z,100993.31
2023-02-13T10:12:34.251Z,100995.06
2023-02-13T10:15:38.261Z,100989.06
2023-02-13T10:18:17.474Z,100990.84
2023-02-13T10:20:55.952Z,100994.41
2023-02-13T10:23:31.352Z,100983.34
2023-02-13T10:26:05.005Z,100995.31
2023-02-13T10:29:17.344Z,100997.03
2023-02-13T10:31:48.929Z,100994.50
2023-02-13T10:34:17.960Z,100978.25
2023-02-13T10:36:47.634Z,100992.00
2023-02-13T10:39:28.778Z,100984.31
2023-02-13T10:42:05.809Z,100983.53
2023-02-13T10:45:25.734Z,100961.44
2023-02-13T10:48:19.458Z,100963.34
2023-02-13T10:51:30.135Z,100966.94
2023-02-13T10:54:50.982Z,100955.03
2023-02-13T10:57:36.450Z,100952.47
2023-02-13T11:00:31.461Z,100949.97
2023-02-13T11:02:59.785Z,100936.25
2023-02-13T11:05:40.221Z,100937.06
2023-02-13T11:08:34.049Z,100925.84
2023-02-13T11:11:01.064Z,100931.84
2023-02-13T11:13:30.227Z,100927.59
2023-02-13T11:16:06.781Z,100931.84
2023-02-13T11:18:38.706Z,100933.59
2023-02-13T11:21:16.463Z,100888.16
2023-02-13T11:23:52.287Z,100848.75
2023-02-13T11:26:24.448Z,100931.25
2023-02-13T11:28:57.369Z,100924.44
2023-02-13T11:31:31.349Z,100925.31
2023-02-13T11:34:00.577Z,100920.22
2023-02-13T11:36:33.403Z,100925.38
2023-02-13T11:39:06.284Z,100917.63
2023-02-13T11:41:43.030Z,100919.34
2023-02-13T11:44:31.904Z,100913.31
2023-02-13T11:47:02.137Z,100919.34
2023-02-13T11:49:32.909Z,100916.78
2023-02-13T11:52:03.229Z,100910.78
2023-02-13T11:54:42.425Z,100915.94
2023-02-13T11:57:36.691Z,100906.50
2023-02-13T12:00:37.793Z,100912.53
2023-02-13T12:03:26.410Z,100912.50
2023-02-13T12:06:15.543Z,100903.91
2023-02-13T12:08:47.497Z,100892.78
2023-02-13T12:11:32.526Z,100912.50
2023-02-13T12:14:00.674Z,100903.06
2023-02-13T12:16:37.490Z,100898.78
2023-02-13T12:19:15.145Z,100895.34
2023-02-13T12:22:04.605Z,100885.91
2023-02-13T12:25:14.922Z,100890.16
2023-02-13T12:28:15.956Z,100899.59
2023-02-13T12:31:23.167Z,100863.53
2023-02-13T12:34:04.868Z,100895.13
2023-02-13T12:37:08.250Z,100894.91
2023-02-13T12:39:39.443Z,100863.69
2023-02-13T12:42:53.552Z,100885.03
2023-02-13T12:45:48.656Z,100879.59
2023-02-13T12:48:47.269Z,100876.19
2023-02-13T12:51:32.777Z,100874.34
2023-02-13T12:54:18.438Z,100872.44
2023-02-13T12:57:28.127Z,100881.72
2023-02-13T13:00:37.302Z,100867.88
2023-02-13T13:03:36.879Z,100868.81
2023-02-13T13:06:29.128Z,100866.97
2023-02-13T13:09:54.159Z,100865.31
2023-02-13T13:12:47.885Z,100857.44
2023-02-13T13:15:38.121Z,100855.56
2023-02-13T13:18:26.392Z,100851.16
2023-02-13T13:21:21.565Z,100847.91
2023-02-13T13:24:54.407Z,100848.97
2023-02-13T13:27:36.724Z,100835.66
2023-02-13T13:30:21.905Z,100824.53
2023-02-13T13:32:56.334Z,100842.38
2023-02-13T13:35:23.442Z,100839.25
2023-02-13T13:38:12.431Z,100807.88
2023-02-13T13:41:15.000Z,100839.63
2023-02-13T13:44:18.750Z,100844.81
2023-02-13T13:47:23.009Z,100843.94
2023-02-13T13:49:55.920Z,100840.53
2023-02-13T13:52:30.428Z,100837.97
2023-02-13T13:55:02.406Z,100838.88
2023-02-13T13:57:41.420Z,100836.28
2023-02-13T14:00:14.143Z,100841.47
2023-02-13T14:02:50.864Z,100839.66
2023-02-13T14:05:30.249Z,100820.84
2023-02-13T14:08:03.490Z,100846.59
2023-02-13T14:10:30.169Z,100844.84
2023-02-13T14:12:56.922Z,100837.97
2023-02-13T14:15:38.878Z,100839.69
2023-02-13T14:18:14.568Z,100841.38
2023-02-13T14:20:50.298Z,100831.06
2023-02-13T14:23:33.895Z,100832.81
2023-02-13T14:26:35.067Z,100822.50
2023-02-13T14:29:28.504Z,100835.38
2023-02-13T14:32:27.188Z,100834.53
2023-02-13T14:35:14.470Z,100837.13
2023-02-13T14:37:54.665Z,100848.28
2023-02-13T14:40:22.281Z,100845.69
2023-02-13T14:43:15.685Z,100818.31
2023-02-13T14:45:57.445Z,100848.28
2023-02-13T14:48:37.944Z,100846.59
2023-02-13T14:51:06.221Z,100852.56
2023-02-13T14:53:51.077Z,100844.00
2023-02-13T14:56:22.629Z,100843.09
2023-02-13T14:59:01.297Z,100847.41
2023-02-13T15:01:37.646Z,100851.69
2023-02-13T15:04:13.351Z,100837.91
2023-02-13T15:06:43.609Z,100831.06
2023-02-13T15:09:40.882Z,100832.69
2023-02-13T15:12:33.279Z,100830.13
2023-02-13T15:15:01.674Z,100830.97
2023-02-13T15:17:40.071Z,100811.28
2023-02-13T15:20:13.041Z,100833.59
2023-02-13T15:22:45.863Z,100819.00
2023-02-13T15:25:39.676Z,100812.13
2023-02-13T15:28:15.317Z,100835.31
2023-02-13T15:30:42.155Z,100826.72
2023-02-13T15:33:18.436Z,100819.84
2023-02-13T15:35:45.847Z,100818.13
2023-02-13T15:38:24.861Z,100801.00
2023-02-13T15:40:54.415Z,100810.50
2023-02-13T15:43:56.818Z,100826.75
2023-02-13T15:46:36.104Z,100825.88
2023-02-13T15:49:16.602Z,100825.03
2023-02-13T15:51:44.138Z,100823.28
2023-02-13T15:54:29.958Z,100827.59
2023-02-13T15:57:04.848Z,100833.63
2023-02-13T15:59:36.803Z,100824.13
2023-02-13T16:02:06.192Z,100825.03
2023-02-13T16:04:33.670Z,100832.78
2023-02-13T16:07:01.330Z,100825.03
2023-02-13T16:09:34.566Z,100819.06
2023-02-13T16:12:16.585Z,100826.78
2023-02-13T16:15:00.027Z,100829.34
2023-02-13T16:17:37.230Z,100834.50
2023-02-13T16:20:11.499Z,100830.31
2023-02-13T16:23:01.817Z,100809.84
2023-02-13T16:25:34.578Z,100823.50
2023-02-13T16:28:17.725Z,100822.63
2023-02-13T16:30:56.355Z,100828.72
2023-02-13T16:33:28.575Z,100827.09
2023-02-13T16:36:16.797Z,100831.41
2023-02-13T16:38:49.540Z,100824.56
2023-02-13T16:41:19.466Z,100834.78
2023-02-13T16:43:48.078Z,100833.97
2023-02-13T16:46:23.307Z,100845.94
2023-02-13T16:49:03.206Z,100838.22
2023-02-13T16:51:30.000Z,100846.84
2023-02-13T16:53:59.437Z,100849.44
2023-02-13T16:56:26.423Z,100835.72
2023-02-13T16:59:24.690Z,100859.78
2023-02-13T17:02:25.552Z,100853.78
2023-02-13T17:05:25.413Z,100858.97
2023-02-13T17:07:57.645Z,100854.66
2023-02-13T17:10:40.206Z,100851.25
2023-02-13T17:13:11.431Z,100848.75
2023-02-13T17:15:46.468Z,100861.69
2023-02-13T17:18:13.541Z,100859.09
2023-02-13T17:20:46.601Z,100859.09
2023-02-13T17:23:26.115Z,100872.88
2023-02-13T17:25:53.910Z,100872.91
2023-02-13T17:28:27.752Z,100878.03
2023-02-13T17:30:58.917Z,100882.34
2023-02-13T17:33:31.685Z,100881.47
2023-02-13T17:35:58.499Z,100889.22
2023-02-13T17:38:25.515Z,100890.09
2023-02-13T17:40:52.420Z,100885.78
2023-02-13T17:43:20.542Z,100886.69
2023-02-13T17:45:49.566Z,100879.81
2023-02-13T17:48:16.910Z,100879.84
2023-02-13T17:50:44.147Z,100878.09
2023-02-13T17:53:23.611Z,100885.00
2023-02-13T17:55:51.255Z,100882.44
2023-02-13T17:58:18.169Z,100884.16
2023-02-13T18:00:45.052Z,100884.16
2023-02-13T18:03:12.834Z,100886.75
2023-02-13T18:05:40.636Z,100879.03
2023-02-13T18:08:08.572Z,100891.91
2023-02-13T18:10:40.103Z,100891.91
2023-02-13T18:13:07.576Z,100895.34
2023-02-13T18:15:43.009Z,100892.78
2023-02-13T18:18:11.887Z,100899.63
2023-02-13T18:20:39.070Z,100899.63
2023-02-13T18:23:07.062Z,100905.63
2023-02-13T18:25:34.802Z,100887.63
2023-02-13T18:28:01.852Z,100909.06
2023-02-13T18:30:28.911Z,100907.34
2023-02-13T18:32:59.008Z,100901.34
2023-02-13T18:35:25.941Z,100901.34
2023-02-13T18:37:53.080Z,100892.78
2023-02-13T18:40:20.030Z,100909.06
2023-02-13T18:42:46.973Z,100891.88
2023-02-13T18:45:13.998Z,100897.91
2023-02-13T18:47:40.783Z,100921.06
2023-02-13T18:50:08.645Z,100911.63
2023-02-13T18:52:35.612Z,100867.88
2023-02-13T18:55:03.040Z,100920.19
2023-02-13T18:57:29.924Z,100928.75
2023-02-13T18:59:56.822Z,100926.16
2023-02-13T19:02:23.744Z,100928.75
2023-02-13T19:04:50.700Z,100922.75
2023-02-13T19:07:17.507Z,100926.16
2023-02-13T19:09:44.470Z,100929.59
2023-02-13T19:12:11.570Z,100933.00
2023-02-13T19:14:39.489Z,100927.00
2023-02-13T19:17:08.493Z,100927.00
2023-02-13T19:19:35.495Z,100929.53
2023-02-13T19:22:03.497Z,100912.41
2023-02-13T19:24:30.429Z,100932.16
2023-02-13T19:26:57.224Z,100933.84
2023-02-13T19:29:24.047Z,100932.09
2023-02-13T19:31:50.953Z,100931.25
2023-02-13T19:34:17.828Z,100931.25
2023-02-13T19:36:44.676Z,100920.94
2023-02-13T19:39:11.835Z,100915.81
2023-02-13T19:41:40.518Z,100914.06
2023-02-13T19:44:08.633Z,100901.16
2023-02-13T19:46:36.600Z,100924.28
2023-02-13T19:49:04.418Z,100925.97
2023-02-13T19:51:34.426Z,100925.13
2023-02-13T19:54:05.292Z,100915.69
2023-02-13T19:56:33.935Z,100917.38
2023-02-13T19:59:00.825Z,100908.81
2023-02-13T20:01:29.578Z,100913.94
2023-02-13T20:03:57.229Z,100913.06
2023-02-13T20:06:32.442Z,100903.66
2023-02-13T20:09:01.770Z,100899.34
2023-02-13T20:11:29.157Z,100883.94
2023-02-13T20:14:00.601Z,100898.47
2023-02-13T20:16:27.961Z,100899.34
2023-02-13T20:18:54.799Z,100900.22
2023-02-13T20:21:21.661Z,100894.19
2023-02-13T20:23:51.162Z,100864.16
2023-02-13T20:26:19.012Z,100905.28
2023-02-13T20:28:47.910Z,100906.13
2023-02-13T20:31:21.204Z,100907.81
2023-02-13T20:33:50.175Z,100886.38
2023-02-13T20:36:21.137Z,100918.06
2023-02-13T20:38:50.227Z,100915.44
2023-02-13T20:41:20.289Z,100911.19
2023-02-13T20:43:47.380Z,100908.59
2023-02-13T20:46:18.343Z,100903.38
2023-02-13T20:48:47.990Z,100912.00
2023-02-13T20:51:17.062Z,100918.88
2023-02-13T20:53:45.305Z,100911.97
2023-02-13T20:56:16.802Z,100910.22
2023-02-13T20:58:45.807Z,100909.34
2023-02-13T21:01:22.559Z,100905.09
2023-02-13T21:03:54.488Z,100903.31
2023-02-13T21:06:23.907Z,100880.13
2023-02-13T21:08:51.140Z,100879.28
2023-02-13T21:11:19.701Z,100896.41
2023-02-13T21:13:46.737Z,100892.97
2023-02-13T21:16:16.052Z,100898.97
2023-02-13T21:18:44.259Z,100896.34
2023-02-13T21:21:11.883Z,100898.88
2023-02-13T21:23:39.504Z,100896.31
2023-02-13T21:26:14.341Z,100889.41
2023-02-13T21:28:43.838Z,100903.13
2023-02-13T21:31:14.113Z,100891.97
2023-02-13T21:33:41.338Z,100888.53
2023-02-13T21:36:10.892Z,100889.34
2023-02-13T21:38:40.332Z,100878.16
2023-02-13T21:41:13.946Z,100867.91
2023-02-13T21:43:42.183Z,100861.88
2023-02-13T21:46:11.405Z,100895.22
2023-02-13T21:48:39.527Z,100890.97
2023-02-13T21:51:16.513Z,100884.06
2023-02-13T21:53:44.668Z,100878.09
2023-02-13T21:56:14.816Z,100860.88
2023-02-13T21:58:43.450Z,100875.47
2023-02-13T22:01:25.507Z,100864.25
2023-02-13T22:03:57.294Z,100879.72
2023-02-13T22:06:25.639Z,100878.00
2023-02-13T22:09:02.496Z,100869.41
2023-02-13T22:11:30.510Z,100877.81
2023-02-13T22:14:02.522Z,100877.81
2023-02-13T22:16:31.993Z,100881.28
2023-02-13T22:19:00.167Z,100877.00
2023-02-13T22:21:29.345Z,100871.75
2023-02-13T22:23:57.253Z,100882.03
2023-02-13T22:26:27.945Z,100883.69
2023-02-13T22:28:59.151Z,100888.81
2023-02-13T22:31:26.188Z,100896.50
2023-02-13T22:34:03.273Z,100894.75
2023-02-13T22:36:32.347Z,100895.63
2023-02-13T22:38:59.244Z,100897.28
2023-02-13T22:41:27.396Z,100899.84
2023-02-13T22:43:54.372Z,100887.75
2023-02-13T22:46:25.937Z,100897.25
2023-02-13T22:48:53.546Z,100893.78
2023-02-13T22:51:27.922Z,100856.03
2023-02-13T22:53:56.939Z,100898.94
2023-02-13T22:56:25.441Z,100898.94
2023-02-13T22:58:52.474Z,100896.25
2023-02-13T23:01:25.134Z,100898.00
2023-02-13T23:03:52.090Z,100879.00
2023-02-13T23:06:19.988Z,100890.19
2023-02-13T23:08:49.107Z,100884.97
2023-02-13T23:11:35.612Z,100842.00
2023-02-13T23:14:03.212Z,100892.63
2023-02-13T23:16:53.475Z,100895.16
2023-02-13T23:19:21.606Z,100894.25
2023-02-13T23:21:48.791Z,100879.72
2023-02-13T23:24:15.586Z,100881.41
2023-02-13T23:26:42.536Z,100891.59
2023-02-13T23:29:09.805Z,100890.69
2023-02-13T23:31:37.122Z,100888.22
2023-02-13T23:34:04.566Z,100884.75
2023-02-13T23:36:31.417Z,100879.59
2023-02-13T23:38:58.326Z,100879.63
2023-02-13T23:41:25.193Z,100845.19
2023-02-13T23:43:52.014Z,100871.78
2023-02-13T23:46:19.009Z,100876.91
2023-02-13T23:48:46.241Z,100873.50
2023-02-13T23:51:13.264Z,100880.38
2023-02-13T23:53:40.102Z,100870.03
2023-02-13T23:56:07.448Z,100870.91
2023-02-13T23:58:34.346Z,100870.88
